sensor_id;sensor_type;location;lat;lon;timestamp;P1;durP1;ratioP1;P2;durP2;ratioP2
3589;SDS011;1809;48.470;9.226;2023-01-29T00:02:11;15.97;;;9.87;;
3589;SDS011;1809;48.470;9.226;2023-01-29T00:04:37;19.80;;;10.93;;
3589;SDS011;1809;48.470;9.226;2023-01-29T00:07:02;16.47;;;10.40;;
3589;SDS011;1809;48.470;9.226;2023-01-29T00:09:27;16.27;;;10.77;;
3589;SDS011;1809;48.470;9.226;2023-01-29T00:11:53;14.93;;;10.40;;
3589;SDS011;1809;48.470;9.226;2023-01-29T00:14:18;18.37;;;11.40;;
3589;SDS011;1809;48.470;9.226;2023-01-29T00:16:44;16.40;;;9.60;;
3589;SDS011;1809;48.470;9.226;2023-01-29T00:19:09;20.27;;;11.13;;
3589;SDS011;1809;48.470;9.226;2023-01-29T00:21:35;14.53;;;10.13;;
3589;SDS011;1809;48.470;9.226;2023-01-29T00:24:00;14.87;;;9.50;;
3589;SDS011;1809;48.470;9.226;2023-01-29T00:26:26;16.23;;;11.47;;
3589;SDS011;1809;48.470;9.226;2023-01-29T00:28:52;19.60;;;11.13;;
3589;SDS011;1809;48.470;9.226;2023-01-29T00:31:18;20.40;;;11.87;;
3589;SDS011;1809;48.470;9.226;2023-01-29T00:33:45;18.03;;;11.00;;
3589;SDS011;1809;48.470;9.226;2023-01-29T00:36:12;16.07;;;10.40;;
3589;SDS011;1809;48.470;9.226;2023-01-29T00:38:39;19.20;;;11.33;;
3589;SDS011;1809;48.470;9.226;2023-01-29T00:41:08;19.90;;;11.00;;
3589;SDS011;1809;48.470;9.226;2023-01-29T00:44:00;17.33;;;10.80;;
3589;SDS011;1809;48.470;9.226;2023-01-29T00:46:45;17.37;;;10.73;;
3589;SDS011;1809;48.470;9.226;2023-01-29T00:49:10;18.93;;;11.00;;
3589;SDS011;1809;48.470;9.226;2023-01-29T00:51:36;16.23;;;11.80;;
3589;SDS011;1809;48.470;9.226;2023-01-29T00:54:03;17.70;;;11.03;;
3589;SDS011;1809;48.470;9.226;2023-01-29T00:56:31;15.67;;;10.20;;
3589;SDS011;1809;48.470;9.226;2023-01-29T00:58:57;15.27;;;10.50;;
3589;SDS011;1809;48.470;9.226;2023-01-29T01:01:22;17.60;;;11.10;;
3589;SDS011;1809;48.470;9.226;2023-01-29T01:04:07;17.23;;;11.27;;
3589;SDS011;1809;48.470;9.226;2023-01-29T01:06:38;15.27;;;10.40;;
3589;SDS011;1809;48.470;9.226;2023-01-29T01:09:04;13.80;;;10.00;;
3589;SDS011;1809;48.470;9.226;2023-01-29T01:11:49;13.70;;;9.77;;
3589;SDS011;1809;48.470;9.226;2023-01-29T01:14:15;20.73;;;11.43;;
3589;SDS011;1809;48.470;9.226;2023-01-29T01:16:41;15.43;;;9.37;;
3589;SDS011;1809;48.470;9.226;2023-01-29T01:19:08;17.57;;;10.37;;
3589;SDS011;1809;48.470;9.226;2023-01-29T01:21:34;20.50;;;11.10;;
3589;SDS011;1809;48.470;9.226;2023-01-29T01:23:59;16.07;;;9.90;;
3589;SDS011;1809;48.470;9.226;2023-01-29T01:26:25;18.60;;;10.73;;
3589;SDS011;1809;48.470;9.226;2023-01-29T01:28:50;15.53;;;10.27;;
3589;SDS011;1809;48.470;9.226;2023-01-29T01:31:15;16.53;;;9.93;;
3589;SDS011;1809;48.470;9.226;2023-01-29T01:33:41;15.80;;;9.90;;
3589;SDS011;1809;48.470;9.226;2023-01-29T01:36:06;15.97;;;9.87;;
3589;SDS011;1809;48.470;9.226;2023-01-29T01:38:34;16.40;;;10.27;;
3589;SDS011;1809;48.470;9.226;2023-01-29T01:41:08;15.10;;;9.30;;
3589;SDS011;1809;48.470;9.226;2023-01-29T01:46:16;17.30;;;9.50;;
3589;SDS011;1809;48.470;9.226;2023-01-29T01:48:41;17.73;;;10.17;;
3589;SDS011;1809;48.470;9.226;2023-01-29T01:51:08;13.60;;;8.87;;
3589;SDS011;1809;48.470;9.226;2023-01-29T01:53:41;15.43;;;9.83;;
3589;SDS011;1809;48.470;9.226;2023-01-29T01:56:14;12.93;;;8.40;;
3589;SDS011;1809;48.470;9.226;2023-01-29T01:58:53;13.53;;;8.43;;
3589;SDS011;1809;48.470;9.226;2023-01-29T02:01:20;9.93;;;7.33;;
3589;SDS011;1809;48.470;9.226;2023-01-29T02:04:14;15.83;;;9.43;;
3589;SDS011;1809;48.470;9.226;2023-01-29T02:07:02;12.30;;;8.27;;
3589;SDS011;1809;48.470;9.226;2023-01-29T02:09:51;10.57;;;6.73;;
3589;SDS011;1809;48.470;9.226;2023-01-29T02:12:19;14.33;;;8.53;;
3589;SDS011;1809;48.470;9.226;2023-01-29T02:14:46;16.70;;;9.37;;
3589;SDS011;1809;48.470;9.226;2023-01-29T02:17:13;16.93;;;10.47;;
3589;SDS011;1809;48.470;9.226;2023-01-29T02:19:46;16.10;;;9.27;;
3589;SDS011;1809;48.470;9.226;2023-01-29T02:25:32;14.00;;;9.43;;
3589;SDS011;1809;48.470;9.226;2023-01-29T02:36:46;11.53;;;7.80;;
3589;SDS011;1809;48.470;9.226;2023-01-29T02:39:23;8.90;;;6.30;;
3589;SDS011;1809;48.470;9.226;2023-01-29T02:44:55;10.50;;;7.00;;
3589;SDS011;1809;48.470;9.226;2023-01-29T02:47:35;7.43;;;6.50;;
3589;SDS011;1809;48.470;9.226;2023-01-29T02:50:08;7.07;;;6.07;;
3589;SDS011;1809;48.470;9.226;2023-01-29T02:58:30;9.90;;;7.53;;
3589;SDS011;1809;48.470;9.226;2023-01-29T03:01:06;10.03;;;7.90;;
3589;SDS011;1809;48.470;9.226;2023-01-29T03:03:38;8.37;;;6.67;;
3589;SDS011;1809;48.470;9.226;2023-01-29T03:06:14;9.10;;;6.73;;
3589;SDS011;1809;48.470;9.226;2023-01-29T03:08:57;10.80;;;7.03;;
3589;SDS011;1809;48.470;9.226;2023-01-29T03:11:26;7.63;;;6.00;;
3589;SDS011;1809;48.470;9.226;2023-01-29T03:17:17;8.20;;;6.20;;
3589;SDS011;1809;48.470;9.226;2023-01-29T03:19:47;10.03;;;6.60;;
3589;SDS011;1809;48.470;9.226;2023-01-29T03:22:13;10.40;;;7.00;;
3589;SDS011;1809;48.470;9.226;2023-01-29T03:24:43;10.53;;;7.07;;
3589;SDS011;1809;48.470;9.226;2023-01-29T03:27:42;8.73;;;6.70;;
3589;SDS011;1809;48.470;9.226;2023-01-29T03:30:29;7.83;;;6.70;;
3589;SDS011;1809;48.470;9.226;2023-01-29T03:33:16;10.77;;;6.77;;
3589;SDS011;1809;48.470;9.226;2023-01-29T03:35:46;11.57;;;7.17;;
3589;SDS011;1809;48.470;9.226;2023-01-29T03:38:17;8.97;;;7.20;;
3589;SDS011;1809;48.470;9.226;2023-01-29T03:40:52;7.50;;;6.20;;
3589;SDS011;1809;48.470;9.226;2023-01-29T03:54:31;9.60;;;6.20;;
3589;SDS011;1809;48.470;9.226;2023-01-29T03:59:40;6.77;;;5.93;;
3589;SDS011;1809;48.470;9.226;2023-01-29T04:02:10;11.20;;;6.60;;
3589;SDS011;1809;48.470;9.226;2023-01-29T04:04:42;10.23;;;6.93;;
3589;SDS011;1809;48.470;9.226;2023-01-29T04:07:12;8.83;;;6.60;;
3589;SDS011;1809;48.470;9.226;2023-01-29T04:12:20;7.90;;;6.57;;
3589;SDS011;1809;48.470;9.226;2023-01-29T04:14:52;8.30;;;5.53;;
3589;SDS011;1809;48.470;9.226;2023-01-29T04:17:23;6.40;;;5.63;;
3589;SDS011;1809;48.470;9.226;2023-01-29T04:19:57;9.90;;;6.50;;
3589;SDS011;1809;48.470;9.226;2023-01-29T04:22:34;8.30;;;6.10;;
3589;SDS011;1809;48.470;9.226;2023-01-29T04:25:02;9.40;;;6.40;;
3589;SDS011;1809;48.470;9.226;2023-01-29T04:35:40;8.90;;;6.33;;
3589;SDS011;1809;48.470;9.226;2023-01-29T04:38:17;7.57;;;6.00;;
3589;SDS011;1809;48.470;9.226;2023-01-29T04:41:04;7.37;;;5.50;;
3589;SDS011;1809;48.470;9.226;2023-01-29T04:43:38;10.83;;;6.37;;
3589;SDS011;1809;48.470;9.226;2023-01-29T04:46:15;7.93;;;6.13;;
3589;SDS011;1809;48.470;9.226;2023-01-29T04:54:27;9.27;;;6.03;;
3589;SDS011;1809;48.470;9.226;2023-01-29T04:57:10;8.10;;;6.10;;
3589;SDS011;1809;48.470;9.226;2023-01-29T04:59:46;7.10;;;5.87;;
3589;SDS011;1809;48.470;9.226;2023-01-29T05:02:15;7.63;;;5.93;;
3589;SDS011;1809;48.470;9.226;2023-01-29T05:04:42;9.00;;;6.50;;
3589;SDS011;1809;48.470;9.226;2023-01-29T05:07:12;11.20;;;6.33;;
3589;SDS011;1809;48.470;9.226;2023-01-29T05:09:38;9.07;;;6.47;;
3589;SDS011;1809;48.470;9.226;2023-01-29T05:12:08;9.30;;;6.30;;
3589;SDS011;1809;48.470;9.226;2023-01-29T05:14:35;8.93;;;6.53;;
3589;SDS011;1809;48.470;9.226;2023-01-29T05:17:04;9.70;;;6.60;;
3589;SDS011;1809;48.470;9.226;2023-01-29T05:19:36;11.80;;;7.23;;
3589;SDS011;1809;48.470;9.226;2023-01-29T05:22:03;5.67;;;5.10;;
3589;SDS011;1809;48.470;9.226;2023-01-29T05:24:30;7.67;;;5.13;;
3589;SDS011;1809;48.470;9.226;2023-01-29T05:26:55;8.00;;;5.37;;
3589;SDS011;1809;48.470;9.226;2023-01-29T05:29:40;8.67;;;5.00;;
3589;SDS011;1809;48.470;9.226;2023-01-29T05:32:09;7.23;;;5.70;;
3589;SDS011;1809;48.470;9.226;2023-01-29T05:34:34;5.03;;;4.40;;
3589;SDS011;1809;48.470;9.226;2023-01-29T05:37:00;5.47;;;4.97;;
3589;SDS011;1809;48.470;9.226;2023-01-29T05:39:25;5.70;;;4.93;;
3589;SDS011;1809;48.470;9.226;2023-01-29T05:41:50;6.93;;;5.40;;
3589;SDS011;1809;48.470;9.226;2023-01-29T05:44:16;5.87;;;4.87;;
3589;SDS011;1809;48.470;9.226;2023-01-29T05:46:41;5.67;;;5.00;;
3589;SDS011;1809;48.470;9.226;2023-01-29T05:49:07;5.40;;;4.90;;
3589;SDS011;1809;48.470;9.226;2023-01-29T05:51:33;5.43;;;4.80;;
3589;SDS011;1809;48.470;9.226;2023-01-29T05:53:58;5.23;;;4.73;;
3589;SDS011;1809;48.470;9.226;2023-01-29T05:56:24;5.43;;;4.10;;
3589;SDS011;1809;48.470;9.226;2023-01-29T05:58:49;5.70;;;5.10;;
3589;SDS011;1809;48.470;9.226;2023-01-29T06:01:15;3.73;;;3.43;;
3589;SDS011;1809;48.470;9.226;2023-01-29T06:03:45;6.90;;;5.30;;
3589;SDS011;1809;48.470;9.226;2023-01-29T06:06:11;6.53;;;4.43;;
3589;SDS011;1809;48.470;9.226;2023-01-29T06:08:37;4.10;;;3.63;;
3589;SDS011;1809;48.470;9.226;2023-01-29T06:11:03;4.97;;;4.00;;
3589;SDS011;1809;48.470;9.226;2023-01-29T06:13:30;6.10;;;4.03;;
3589;SDS011;1809;48.470;9.226;2023-01-29T06:15:56;4.90;;;3.93;;
3589;SDS011;1809;48.470;9.226;2023-01-29T06:18:21;5.80;;;4.20;;
3589;SDS011;1809;48.470;9.226;2023-01-29T06:20:46;4.90;;;3.90;;
3589;SDS011;1809;48.470;9.226;2023-01-29T06:23:12;4.10;;;3.70;;
3589;SDS011;1809;48.470;9.226;2023-01-29T06:25:37;4.53;;;3.67;;
3589;SDS011;1809;48.470;9.226;2023-01-29T06:28:02;4.00;;;3.50;;
3589;SDS011;1809;48.470;9.226;2023-01-29T06:30:28;4.60;;;2.97;;
3589;SDS011;1809;48.470;9.226;2023-01-29T06:32:57;3.63;;;3.20;;
3589;SDS011;1809;48.470;9.226;2023-01-29T06:35:23;3.40;;;2.73;;
3589;SDS011;1809;48.470;9.226;2023-01-29T06:37:49;2.87;;;2.70;;
3589;SDS011;1809;48.470;9.226;2023-01-29T06:40:14;2.60;;;2.40;;
3589;SDS011;1809;48.470;9.226;2023-01-29T06:42:40;3.07;;;2.87;;
3589;SDS011;1809;48.470;9.226;2023-01-29T06:45:05;3.50;;;3.20;;
3589;SDS011;1809;48.470;9.226;2023-01-29T06:47:31;4.07;;;3.67;;
3589;SDS011;1809;48.470;9.226;2023-01-29T06:49:56;3.63;;;3.33;;
3589;SDS011;1809;48.470;9.226;2023-01-29T06:52:22;3.30;;;3.03;;
3589;SDS011;1809;48.470;9.226;2023-01-29T06:54:49;4.37;;;3.50;;
3589;SDS011;1809;48.470;9.226;2023-01-29T06:57:14;5.07;;;3.97;;
3589;SDS011;1809;48.470;9.226;2023-01-29T06:59:39;2.73;;;2.60;;
3589;SDS011;1809;48.470;9.226;2023-01-29T07:02:05;5.30;;;3.60;;
3589;SDS011;1809;48.470;9.226;2023-01-29T07:04:30;5.07;;;3.53;;
3589;SDS011;1809;48.470;9.226;2023-01-29T07:06:57;6.10;;;3.00;;
3589;SDS011;1809;48.470;9.226;2023-01-29T07:09:23;3.57;;;3.37;;
3589;SDS011;1809;48.470;9.226;2023-01-29T07:11:48;16.43;;;10.30;;
3589;SDS011;1809;48.470;9.226;2023-01-29T07:14:14;10.13;;;6.47;;
3589;SDS011;1809;48.470;9.226;2023-01-29T07:16:39;7.97;;;6.20;;
3589;SDS011;1809;48.470;9.226;2023-01-29T07:19:04;6.43;;;4.33;;
3589;SDS011;1809;48.470;9.226;2023-01-29T07:21:30;3.07;;;2.87;;
3589;SDS011;1809;48.470;9.226;2023-01-29T07:23:55;2.97;;;2.77;;
3589;SDS011;1809;48.470;9.226;2023-01-29T07:26:21;3.87;;;3.57;;
3589;SDS011;1809;48.470;9.226;2023-01-29T07:28:46;3.63;;;3.33;;
3589;SDS011;1809;48.470;9.226;2023-01-29T07:31:12;3.07;;;2.87;;
3589;SDS011;1809;48.470;9.226;2023-01-29T07:33:39;3.87;;;3.50;;
3589;SDS011;1809;48.470;9.226;2023-01-29T07:36:07;3.53;;;3.23;;
3589;SDS011;1809;48.470;9.226;2023-01-29T07:38:33;4.10;;;3.80;;
3589;SDS011;1809;48.470;9.226;2023-01-29T07:40:58;5.17;;;3.80;;
3589;SDS011;1809;48.470;9.226;2023-01-29T07:43:23;4.00;;;3.70;;
3589;SDS011;1809;48.470;9.226;2023-01-29T07:45:49;4.17;;;3.77;;
3589;SDS011;1809;48.470;9.226;2023-01-29T07:48:14;4.33;;;3.63;;
3589;SDS011;1809;48.470;9.226;2023-01-29T07:50:40;4.63;;;4.30;;
3589;SDS011;1809;48.470;9.226;2023-01-29T07:53:06;3.73;;;3.50;;
3589;SDS011;1809;48.470;9.226;2023-01-29T07:55:31;3.47;;;3.27;;
3589;SDS011;1809;48.470;9.226;2023-01-29T07:57:58;3.87;;;3.47;;
3589;SDS011;1809;48.470;9.226;2023-01-29T08:00:26;3.70;;;3.40;;
3589;SDS011;1809;48.470;9.226;2023-01-29T08:02:51;4.27;;;3.77;;
3589;SDS011;1809;48.470;9.226;2023-01-29T08:05:17;5.50;;;3.70;;
3589;SDS011;1809;48.470;9.226;2023-01-29T08:07:43;3.43;;;3.13;;
3589;SDS011;1809;48.470;9.226;2023-01-29T08:10:08;3.27;;;3.07;;
3589;SDS011;1809;48.470;9.226;2023-01-29T08:12:34;3.83;;;3.53;;
3589;SDS011;1809;48.470;9.226;2023-01-29T08:14:59;4.00;;;3.67;;
3589;SDS011;1809;48.470;9.226;2023-01-29T08:17:24;3.73;;;3.40;;
3589;SDS011;1809;48.470;9.226;2023-01-29T08:19:50;4.10;;;3.47;;
3589;SDS011;1809;48.470;9.226;2023-01-29T08:22:15;3.27;;;2.97;;
3589;SDS011;1809;48.470;9.226;2023-01-29T08:24:41;3.53;;;3.23;;
3589;SDS011;1809;48.470;9.226;2023-01-29T08:27:07;4.33;;;3.93;;
3589;SDS011;1809;48.470;9.226;2023-01-29T08:29:32;9.67;;;6.17;;
3589;SDS011;1809;48.470;9.226;2023-01-29T08:31:58;16.33;;;8.40;;
3589;SDS011;1809;48.470;9.226;2023-01-29T08:34:24;19.07;;;9.43;;
3589;SDS011;1809;48.470;9.226;2023-01-29T08:36:50;10.97;;;5.90;;
3589;SDS011;1809;48.470;9.226;2023-01-29T08:39:15;6.80;;;5.20;;
3589;SDS011;1809;48.470;9.226;2023-01-29T08:41:40;6.80;;;4.60;;
3589;SDS011;1809;48.470;9.226;2023-01-29T08:44:06;9.70;;;4.90;;
3589;SDS011;1809;48.470;9.226;2023-01-29T08:46:31;4.43;;;3.80;;
3589;SDS011;1809;48.470;9.226;2023-01-29T08:48:57;6.33;;;4.93;;
3589;SDS011;1809;48.470;9.226;2023-01-29T08:51:23;4.60;;;4.27;;
3589;SDS011;1809;48.470;9.226;2023-01-29T08:53:49;4.47;;;3.47;;
3589;SDS011;1809;48.470;9.226;2023-01-29T08:56:14;5.97;;;4.80;;
3589;SDS011;1809;48.470;9.226;2023-01-29T08:58:40;7.17;;;4.63;;
3589;SDS011;1809;48.470;9.226;2023-01-29T09:01:10;6.03;;;4.20;;
3589;SDS011;1809;48.470;9.226;2023-01-29T09:03:36;5.33;;;4.60;;
3589;SDS011;1809;48.470;9.226;2023-01-29T09:06:05;6.80;;;5.00;;
3589;SDS011;1809;48.470;9.226;2023-01-29T09:08:30;4.17;;;3.80;;
3589;SDS011;1809;48.470;9.226;2023-01-29T09:10:57;3.37;;;3.10;;
3589;SDS011;1809;48.470;9.226;2023-01-29T09:13:24;6.10;;;4.17;;
3589;SDS011;1809;48.470;9.226;2023-01-29T09:15:49;4.17;;;3.80;;
3589;SDS011;1809;48.470;9.226;2023-01-29T09:18:14;5.13;;;3.87;;
3589;SDS011;1809;48.470;9.226;2023-01-29T09:20:40;4.37;;;3.90;;
3589;SDS011;1809;48.470;9.226;2023-01-29T09:23:06;9.80;;;4.20;;
3589;SDS011;1809;48.470;9.226;2023-01-29T09:25:33;10.83;;;5.73;;
3589;SDS011;1809;48.470;9.226;2023-01-29T09:27:58;5.73;;;5.10;;
3589;SDS011;1809;48.470;9.226;2023-01-29T09:30:24;5.57;;;5.07;;
3589;SDS011;1809;48.470;9.226;2023-01-29T09:32:49;5.63;;;5.00;;
3589;SDS011;1809;48.470;9.226;2023-01-29T09:35:14;5.37;;;4.90;;
3589;SDS011;1809;48.470;9.226;2023-01-29T09:37:40;5.70;;;5.20;;
3589;SDS011;1809;48.470;9.226;2023-01-29T09:40:05;6.77;;;5.20;;
3589;SDS011;1809;48.470;9.226;2023-01-29T09:42:42;6.93;;;5.20;;
3589;SDS011;1809;48.470;9.226;2023-01-29T09:45:15;12.53;;;5.30;;
3589;SDS011;1809;48.470;9.226;2023-01-29T09:47:48;15.57;;;6.00;;
3589;SDS011;1809;48.470;9.226;2023-01-29T09:50:22;4.43;;;4.13;;
3589;SDS011;1809;48.470;9.226;2023-01-29T09:52:58;6.00;;;5.03;;
3589;SDS011;1809;48.470;9.226;2023-01-29T09:55:25;6.47;;;5.73;;
3589;SDS011;1809;48.470;9.226;2023-01-29T09:57:59;15.03;;;5.50;;
3589;SDS011;1809;48.470;9.226;2023-01-29T10:00:35;11.80;;;5.47;;
3589;SDS011;1809;48.470;9.226;2023-01-29T10:03:12;4.80;;;4.40;;
3589;SDS011;1809;48.470;9.226;2023-01-29T10:22:39;6.70;;;5.10;;
3589;SDS011;1809;48.470;9.226;2023-01-29T10:25:14;17.93;;;5.90;;
3589;SDS011;1809;48.470;9.226;2023-01-29T10:27:44;7.13;;;5.20;;
3589;SDS011;1809;48.470;9.226;2023-01-29T10:30:30;5.07;;;4.67;;
3589;SDS011;1809;48.470;9.226;2023-01-29T10:33:00;4.60;;;4.10;;
3589;SDS011;1809;48.470;9.226;2023-01-29T10:38:11;5.20;;;4.40;;
3589;SDS011;1809;48.470;9.226;2023-01-29T10:40:48;5.73;;;4.40;;
3589;SDS011;1809;48.470;9.226;2023-01-29T10:43:53;5.63;;;4.33;;
3589;SDS011;1809;48.470;9.226;2023-01-29T10:49:34;5.30;;;4.73;;
3589;SDS011;1809;48.470;9.226;2023-01-29T10:52:09;15.87;;;7.20;;
3589;SDS011;1809;48.470;9.226;2023-01-29T10:54:52;6.93;;;5.67;;
3589;SDS011;1809;48.470;9.226;2023-01-29T11:00:37;4.53;;;4.13;;
3589;SDS011;1809;48.470;9.226;2023-01-29T11:03:14;11.30;;;6.33;;
3589;SDS011;1809;48.470;9.226;2023-01-29T11:05:51;4.10;;;3.70;;
3589;SDS011;1809;48.470;9.226;2023-01-29T11:08:42;6.43;;;4.93;;
3589;SDS011;1809;48.470;9.226;2023-01-29T11:11:17;6.17;;;5.57;;
3589;SDS011;1809;48.470;9.226;2023-01-29T11:13:48;5.03;;;4.60;;
3589;SDS011;1809;48.470;9.226;2023-01-29T11:16:18;10.20;;;5.10;;
3589;SDS011;1809;48.470;9.226;2023-01-29T11:18:47;18.80;;;5.83;;
3589;SDS011;1809;48.470;9.226;2023-01-29T11:21:14;6.60;;;5.17;;
3589;SDS011;1809;48.470;9.226;2023-01-29T11:23:40;34.63;;;7.43;;
3589;SDS011;1809;48.470;9.226;2023-01-29T11:26:05;14.77;;;5.47;;
3589;SDS011;1809;48.470;9.226;2023-01-29T11:28:41;5.63;;;4.83;;
3589;SDS011;1809;48.470;9.226;2023-01-29T11:31:17;5.50;;;5.10;;
3589;SDS011;1809;48.470;9.226;2023-01-29T11:34:02;5.93;;;5.43;;
3589;SDS011;1809;48.470;9.226;2023-01-29T11:36:34;5.20;;;4.80;;
3589;SDS011;1809;48.470;9.226;2023-01-29T11:39:19;14.17;;;8.03;;
3589;SDS011;1809;48.470;9.226;2023-01-29T11:44:17;10.57;;;6.90;;
3589;SDS011;1809;48.470;9.226;2023-01-29T11:46:51;12.13;;;8.07;;
3589;SDS011;1809;48.470;9.226;2023-01-29T11:49:21;5.20;;;4.70;;
3589;SDS011;1809;48.470;9.226;2023-01-29T11:52:00;4.80;;;4.40;;
3589;SDS011;1809;48.470;9.226;2023-01-29T11:54:30;5.40;;;5.00;;
3589;SDS011;1809;48.470;9.226;2023-01-29T11:57:01;4.27;;;4.00;;
3589;SDS011;1809;48.470;9.226;2023-01-29T11:59:42;8.80;;;6.63;;
3589;SDS011;1809;48.470;9.226;2023-01-29T12:04:48;11.47;;;7.10;;
3589;SDS011;1809;48.470;9.226;2023-01-29T12:07:15;4.83;;;4.43;;
3589;SDS011;1809;48.470;9.226;2023-01-29T12:09:51;11.20;;;5.63;;
3589;SDS011;1809;48.470;9.226;2023-01-29T12:12:28;5.67;;;5.13;;
3589;SDS011;1809;48.470;9.226;2023-01-29T12:15:14;12.03;;;5.67;;
3589;SDS011;1809;48.470;9.226;2023-01-29T12:17:49;11.33;;;6.80;;
3589;SDS011;1809;48.470;9.226;2023-01-29T12:20:20;5.97;;;5.47;;
3589;SDS011;1809;48.470;9.226;2023-01-29T12:22:52;21.73;;;7.07;;
3589;SDS011;1809;48.470;9.226;2023-01-29T12:25:22;7.33;;;4.33;;
3589;SDS011;1809;48.470;9.226;2023-01-29T12:28:00;6.47;;;5.73;;
3589;SDS011;1809;48.470;9.226;2023-01-29T12:30:39;17.97;;;6.00;;
3589;SDS011;1809;48.470;9.226;2023-01-29T12:33:22;10.83;;;6.33;;
3589;SDS011;1809;48.470;9.226;2023-01-29T12:36:12;9.60;;;6.20;;
3589;SDS011;1809;48.470;9.226;2023-01-29T12:38:57;8.23;;;6.00;;
3589;SDS011;1809;48.470;9.226;2023-01-29T12:42:24;5.87;;;5.37;;
3589;SDS011;1809;48.470;9.226;2023-01-29T12:44:45;18.67;;;5.73;;
3589;SDS011;1809;48.470;9.226;2023-01-29T12:47:36;6.10;;;5.30;;
3589;SDS011;1809;48.470;9.226;2023-01-29T12:50:08;7.23;;;5.00;;
3589;SDS011;1809;48.470;9.226;2023-01-29T12:52:44;7.17;;;5.43;;
3589;SDS011;1809;48.470;9.226;2023-01-29T12:58:02;7.93;;;5.90;;
3589;SDS011;1809;48.470;9.226;2023-01-29T13:00:34;9.40;;;6.13;;
3589;SDS011;1809;48.470;9.226;2023-01-29T13:03:13;6.20;;;5.47;;
3589;SDS011;1809;48.470;9.226;2023-01-29T13:05:48;7.00;;;5.07;;
3589;SDS011;1809;48.470;9.226;2023-01-29T13:11:00;5.90;;;5.40;;
3589;SDS011;1809;48.470;9.226;2023-01-29T13:13:32;6.03;;;5.33;;
3589;SDS011;1809;48.470;9.226;2023-01-29T13:16:00;7.90;;;5.60;;
3589;SDS011;1809;48.470;9.226;2023-01-29T13:18:39;5.47;;;5.00;;
3589;SDS011;1809;48.470;9.226;2023-01-29T13:21:06;6.60;;;6.00;;
3589;SDS011;1809;48.470;9.226;2023-01-29T13:23:48;7.10;;;6.20;;
3589;SDS011;1809;48.470;9.226;2023-01-29T13:26:20;6.87;;;5.60;;
3589;SDS011;1809;48.470;9.226;2023-01-29T13:28:47;7.37;;;6.23;;
3589;SDS011;1809;48.470;9.226;2023-01-29T13:31:17;10.63;;;7.07;;
3589;SDS011;1809;48.470;9.226;2023-01-29T13:33:50;14.80;;;6.07;;
3589;SDS011;1809;48.470;9.226;2023-01-29T13:36:24;12.40;;;7.03;;
3589;SDS011;1809;48.470;9.226;2023-01-29T13:39:00;19.90;;;7.43;;
3589;SDS011;1809;48.470;9.226;2023-01-29T13:41:38;11.50;;;7.07;;
3589;SDS011;1809;48.470;9.226;2023-01-29T13:47:06;11.23;;;6.30;;
3589;SDS011;1809;48.470;9.226;2023-01-29T13:49:38;19.10;;;6.57;;
3589;SDS011;1809;48.470;9.226;2023-01-29T13:52:20;8.17;;;5.70;;
3589;SDS011;1809;48.470;9.226;2023-01-29T13:54:52;12.50;;;6.87;;
3589;SDS011;1809;48.470;9.226;2023-01-29T14:05:41;8.17;;;7.03;;
3589;SDS011;1809;48.470;9.226;2023-01-29T14:13:39;25.53;;;8.20;;
3589;SDS011;1809;48.470;9.226;2023-01-29T14:18:34;6.60;;;6.00;;
3589;SDS011;1809;48.470;9.226;2023-01-29T14:28:50;6.57;;;5.80;;
3589;SDS011;1809;48.470;9.226;2023-01-29T14:31:28;8.27;;;6.50;;
3589;SDS011;1809;48.470;9.226;2023-01-29T14:33:59;8.47;;;6.23;;
3589;SDS011;1809;48.470;9.226;2023-01-29T14:36:27;7.80;;;6.43;;
3589;SDS011;1809;48.470;9.226;2023-01-29T14:38:52;12.03;;;5.70;;
3589;SDS011;1809;48.470;9.226;2023-01-29T14:43:46;11.23;;;7.33;;
3589;SDS011;1809;48.470;9.226;2023-01-29T14:49:02;8.60;;;6.03;;
3589;SDS011;1809;48.470;9.226;2023-01-29T14:51:30;8.00;;;5.90;;
3589;SDS011;1809;48.470;9.226;2023-01-29T14:54:03;13.00;;;7.93;;
3589;SDS011;1809;48.470;9.226;2023-01-29T14:56:44;17.60;;;8.17;;
3589;SDS011;1809;48.470;9.226;2023-01-29T14:59:19;9.37;;;7.57;;
3589;SDS011;1809;48.470;9.226;2023-01-29T15:01:52;10.57;;;7.40;;
3589;SDS011;1809;48.470;9.226;2023-01-29T15:04:21;11.40;;;7.67;;
3589;SDS011;1809;48.470;9.226;2023-01-29T15:06:51;9.97;;;8.10;;
3589;SDS011;1809;48.470;9.226;2023-01-29T15:09:46;15.50;;;11.20;;
3589;SDS011;1809;48.470;9.226;2023-01-29T15:15:15;11.70;;;7.63;;
3589;SDS011;1809;48.470;9.226;2023-01-29T15:17:51;8.57;;;5.73;;
3589;SDS011;1809;48.470;9.226;2023-01-29T15:20:28;23.53;;;13.63;;
3589;SDS011;1809;48.470;9.226;2023-01-29T15:22:56;24.03;;;12.43;;
3589;SDS011;1809;48.470;9.226;2023-01-29T15:25:21;21.67;;;12.80;;
3589;SDS011;1809;48.470;9.226;2023-01-29T15:27:47;15.27;;;10.57;;
3589;SDS011;1809;48.470;9.226;2023-01-29T15:30:14;11.13;;;8.47;;
3589;SDS011;1809;48.470;9.226;2023-01-29T15:32:47;8.67;;;6.50;;
3589;SDS011;1809;48.470;9.226;2023-01-29T15:38:18;9.70;;;6.63;;
3589;SDS011;1809;48.470;9.226;2023-01-29T15:40:53;10.93;;;6.03;;
3589;SDS011;1809;48.470;9.226;2023-01-29T15:43:21;9.83;;;6.83;;
3589;SDS011;1809;48.470;9.226;2023-01-29T15:46:01;8.67;;;6.40;;
3589;SDS011;1809;48.470;9.226;2023-01-29T15:48:35;8.70;;;7.70;;
3589;SDS011;1809;48.470;9.226;2023-01-29T15:51:05;11.03;;;8.27;;
3589;SDS011;1809;48.470;9.226;2023-01-29T15:53:41;9.97;;;6.87;;
3589;SDS011;1809;48.470;9.226;2023-01-29T15:56:14;10.70;;;8.13;;
3589;SDS011;1809;48.470;9.226;2023-01-29T15:58:45;13.47;;;7.60;;
3589;SDS011;1809;48.470;9.226;2023-01-29T16:01:13;9.90;;;7.70;;
3589;SDS011;1809;48.470;9.226;2023-01-29T16:03:39;15.93;;;11.00;;
3589;SDS011;1809;48.470;9.226;2023-01-29T16:06:05;13.70;;;9.23;;
3589;SDS011;1809;48.470;9.226;2023-01-29T16:08:32;13.47;;;9.83;;
3589;SDS011;1809;48.470;9.226;2023-01-29T16:11:01;13.77;;;10.77;;
3589;SDS011;1809;48.470;9.226;2023-01-29T16:13:32;17.70;;;8.80;;
3589;SDS011;1809;48.470;9.226;2023-01-29T16:18:47;17.80;;;10.23;;
3589;SDS011;1809;48.470;9.226;2023-01-29T16:21:16;20.20;;;10.80;;
3589;SDS011;1809;48.470;9.226;2023-01-29T16:23:51;16.90;;;11.33;;
3589;SDS011;1809;48.470;9.226;2023-01-29T16:26:20;18.53;;;12.07;;
3589;SDS011;1809;48.470;9.226;2023-01-29T16:28:49;24.00;;;14.97;;
3589;SDS011;1809;48.470;9.226;2023-01-29T16:31:26;18.80;;;12.83;;
3589;SDS011;1809;48.470;9.226;2023-01-29T16:33:53;23.40;;;15.17;;
3589;SDS011;1809;48.470;9.226;2023-01-29T16:36:23;22.17;;;14.70;;
3589;SDS011;1809;48.470;9.226;2023-01-29T16:38:56;19.10;;;10.60;;
3589;SDS011;1809;48.470;9.226;2023-01-29T16:43:50;22.87;;;12.27;;
3589;SDS011;1809;48.470;9.226;2023-01-29T16:46:32;14.97;;;8.90;;
3589;SDS011;1809;48.470;9.226;2023-01-29T16:48:59;16.03;;;7.87;;
3589;SDS011;1809;48.470;9.226;2023-01-29T16:51:30;11.30;;;8.00;;
3589;SDS011;1809;48.470;9.226;2023-01-29T16:54:05;13.20;;;8.60;;
3589;SDS011;1809;48.470;9.226;2023-01-29T16:56:31;13.50;;;7.93;;
3589;SDS011;1809;48.470;9.226;2023-01-29T16:58:58;11.47;;;7.57;;
3589;SDS011;1809;48.470;9.226;2023-01-29T17:01:26;13.87;;;8.33;;
3589;SDS011;1809;48.470;9.226;2023-01-29T17:04:12;11.87;;;8.30;;
3589;SDS011;1809;48.470;9.226;2023-01-29T17:06:40;18.80;;;7.87;;
3589;SDS011;1809;48.470;9.226;2023-01-29T17:09:16;15.30;;;9.60;;
3589;SDS011;1809;48.470;9.226;2023-01-29T17:11:52;20.43;;;9.07;;
3589;SDS011;1809;48.470;9.226;2023-01-29T17:14:22;13.97;;;8.90;;
3589;SDS011;1809;48.470;9.226;2023-01-29T17:16:49;14.87;;;9.43;;
3589;SDS011;1809;48.470;9.226;2023-01-29T17:19:29;16.60;;;9.70;;
3589;SDS011;1809;48.470;9.226;2023-01-29T17:21:55;16.97;;;10.90;;
3589;SDS011;1809;48.470;9.226;2023-01-29T17:24:22;21.27;;;11.30;;
3589;SDS011;1809;48.470;9.226;2023-01-29T17:26:48;20.87;;;11.67;;
3589;SDS011;1809;48.470;9.226;2023-01-29T17:29:16;21.50;;;11.07;;
3589;SDS011;1809;48.470;9.226;2023-01-29T17:31:44;21.10;;;11.03;;
3589;SDS011;1809;48.470;9.226;2023-01-29T17:34:13;15.77;;;10.07;;
3589;SDS011;1809;48.470;9.226;2023-01-29T17:36:40;18.30;;;11.07;;
3589;SDS011;1809;48.470;9.226;2023-01-29T17:39:15;25.30;;;11.43;;
3589;SDS011;1809;48.470;9.226;2023-01-29T17:41:40;17.90;;;11.00;;
3589;SDS011;1809;48.470;9.226;2023-01-29T17:44:08;14.53;;;10.30;;
3589;SDS011;1809;48.470;9.226;2023-01-29T17:46:33;19.47;;;11.30;;